createdAt,value
2018-06-29T00:00:03.576Z,0.00
2018-06-29T00:01:03.580Z,0.00
2018-06-29T00:02:03.582Z,0.00
2018-06-29T00:03:03.588Z,0.00
2018-06-29T00:04:03.592Z,0.00
2018-06-29T00:05:03.590Z,0.00
2018-06-29T00:06:03.602Z,0.00
2018-06-29T00:07:03.604Z,0.00
2018-06-29T00:08:03.607Z,0.00
2018-06-29T00:09:03.607Z,0.00
2018-06-29T00:10:03.617Z,0.00
2018-06-29T00:11:03.622Z,0.00
2018-06-29T00:12:03.624Z,0.00
2018-06-29T00:13:03.621Z,0.00
2018-06-29T00:14:03.634Z,0.00
2018-06-29T00:15:03.635Z,0.00
2018-06-29T00:16:03.642Z,0.00
2018-06-29T00:17:03.641Z,0.00
2018-06-29T00:18:03.644Z,0.00
2018-06-29T00:19:03.651Z,0.00
2018-06-29T00:20:03.656Z,0.00
2018-06-29T00:21:03.661Z,0.00
2018-06-29T00:22:03.662Z,0.00
2018-06-29T00:23:03.668Z,0.00
2018-06-29T00:24:03.665Z,0.00
2018-06-29T00:25:03.668Z,0.00
2018-06-29T00:26:03.679Z,0.00
2018-06-29T00:27:03.677Z,0.00
2018-06-29T00:28:03.686Z,0.00
2018-06-29T00:29:03.690Z,0.00
2018-06-29T00:30:03.697Z,0.00
2018-06-29T00:31:03.702Z,0.00
2018-06-29T00:32:03.710Z,0.00
2018-06-29T00:33:03.706Z,0.00
2018-06-29T00:34:03.711Z,0.00
2018-06-29T00:35:03.716Z,0.00
2018-06-29T00:36:03.719Z,0.00
2018-06-29T00:37:03.717Z,0.00
2018-06-29T00:38:03.731Z,0.00
2018-06-29T00:39:03.728Z,0.00
2018-06-29T00:40:03.732Z,0.00
2018-06-29T00:41:03.741Z,0.00
2018-06-29T00:42:03.747Z,0.00
2018-06-29T00:43:03.753Z,0.00
2018-06-29T00:44:03.750Z,0.00
2018-06-29T00:45:03.752Z,0.00
2018-06-29T00:46:03.759Z,0.00
2018-06-29T00:47:03.775Z,0.00
2018-06-29T00:48:03.762Z,0.00
2018-06-29T00:49:03.771Z,0.00
2018-06-29T00:50:03.774Z,0.00
2018-06-29T00:51:03.777Z,0.00
2018-06-29T00:52:03.783Z,0.00
2018-06-29T00:53:03.786Z,0.00
2018-06-29T00:54:03.791Z,0.00
2018-06-29T00:55:03.795Z,0.00
2018-06-29T00:56:03.800Z,0.00
2018-06-29T00:57:03.798Z,0.00
2018-06-29T00:58:03.807Z,0.00
2018-06-29T00:59:03.811Z,0.00
2018-06-29T01:00:03.816Z,0.00
2018-06-29T01:01:03.824Z,0.00
2018-06-29T01:02:03.823Z,0.00
2018-06-29T01:03:03.826Z,0.00
2018-06-29T01:04:03.832Z,0.00
2018-06-29T01:05:03.836Z,0.00
2018-06-29T01:06:03.839Z,0.00
2018-06-29T01:07:03.837Z,0.00
2018-06-29T01:08:03.847Z,0.00
2018-06-29T01:09:03.852Z,0.00
2018-06-29T01:10:03.855Z,0.00
2018-06-29T01:11:03.853Z,0.00
2018-06-29T01:12:03.864Z,0.00
2018-06-29T01:13:03.867Z,0.00
2018-06-29T01:14:03.871Z,0.00
2018-06-29T01:15:03.878Z,0.00
2018-06-29T01:16:03.878Z,0.00
2018-06-29T01:17:03.883Z,0.00
2018-06-29T01:18:03.887Z,0.00
2018-06-29T01:19:03.891Z,0.00
2018-06-29T01:20:03.894Z,0.00
2018-06-29T01:21:03.893Z,0.00
2018-06-29T01:22:03.897Z,0.00
2018-06-29T01:23:03.903Z,0.00
2018-06-29T01:24:03.910Z,0.00
2018-06-29T01:25:03.920Z,0.00
2018-06-29T01:26:03.919Z,0.00
2018-06-29T01:27:03.922Z,0.00
2018-06-29T01:28:03.928Z,0.00
2018-06-29T01:29:03.931Z,0.00
2018-06-29T01:30:03.936Z,0.00
2018-06-29T01:31:03.938Z,0.00
2018-06-29T01:32:03.943Z,0.00
2018-06-29T01:33:03.947Z,0.00
2018-06-29T01:34:03.950Z,0.00
2018-06-29T01:35:03.955Z,0.00
2018-06-29T01:36:03.959Z,0.00
2018-06-29T01:37:03.960Z,0.00
2018-06-29T01:38:03.966Z,0.00
2018-06-29T01:39:03.966Z,0.00
2018-06-29T01:40:03.972Z,0.00
2018-06-29T01:41:03.970Z,0.00
2018-06-29T01:42:03.974Z,0.00
2018-06-29T01:43:03.986Z,0.00
2018-06-29T01:44:03.989Z,0.00
2018-06-29T01:45:03.991Z,0.00
2018-06-29T01:46:04.002Z,0.00
2018-06-29T01:47:04.001Z,0.00
2018-06-29T01:48:04.004Z,0.00
2018-06-29T01:49:04.006Z,0.00
2018-06-29T01:50:04.008Z,0.00
2018-06-29T01:51:04.020Z,0.00
2018-06-29T01:52:04.014Z,0.00
2018-06-29T01:53:04.019Z,0.00
2018-06-29T01:54:04.026Z,0.00
2018-06-29T01:55:04.032Z,0.00
2018-06-29T01:56:04.034Z,0.00
2018-06-29T01:57:04.038Z,0.00
2018-06-29T01:58:04.039Z,0.00
2018-06-29T01:59:04.042Z,0.00
2018-06-29T02:00:04.047Z,0.00
2018-06-29T02:01:04.049Z,0.00
2018-06-29T02:02:04.054Z,0.00
2018-06-29T02:03:04.057Z,0.00
2018-06-29T02:04:04.062Z,0.00
2018-06-29T02:05:04.066Z,0.00
2018-06-29T02:06:04.069Z,0.00
2018-06-29T02:07:04.067Z,0.00
2018-06-29T02:08:04.142Z,0.00
2018-06-29T02:09:04.071Z,0.00
2018-06-29T02:10:04.077Z,0.00
2018-06-29T02:11:04.085Z,0.00
2018-06-29T02:12:04.088Z,0.00
2018-06-29T02:13:04.089Z,0.00
2018-06-29T02:14:04.090Z,0.00
2018-06-29T02:15:04.097Z,0.00
2018-06-29T02:16:04.102Z,0.00
2018-06-29T02:17:04.104Z,0.00
2018-06-29T02:18:04.104Z,0.00
2018-06-29T02:19:04.111Z,0.00
2018-06-29T02:20:04.109Z,0.00
2018-06-29T02:21:04.115Z,0.00
2018-06-29T02:22:04.122Z,0.00
2018-06-29T02:23:04.123Z,0.00
2018-06-29T02:24:04.128Z,0.00
2018-06-29T02:25:04.130Z,0.00
2018-06-29T02:26:04.133Z,0.00
2018-06-29T02:27:04.136Z,0.00
2018-06-29T02:28:04.141Z,0.00
2018-06-29T02:29:04.136Z,0.00
2018-06-29T02:30:04.153Z,0.00
2018-06-29T02:31:04.150Z,0.00
2018-06-29T02:32:04.153Z,0.00
2018-06-29T02:33:04.148Z,0.00
2018-06-29T02:34:04.160Z,0.00
2018-06-29T02:35:04.160Z,0.00
2018-06-29T02:36:04.166Z,0.00
2018-06-29T02:37:04.168Z,0.00
2018-06-29T02:38:04.171Z,0.00
2018-06-29T02:39:04.173Z,0.00
2018-06-29T02:40:04.175Z,0.00
2018-06-29T02:41:04.179Z,0.00
2018-06-29T02:42:04.183Z,0.00
2018-06-29T02:43:04.182Z,0.00
2018-06-29T02:44:04.192Z,0.00
2018-06-29T02:45:04.188Z,0.00
2018-06-29T02:46:04.190Z,0.00
2018-06-29T02:47:04.202Z,0.00
2018-06-29T02:48:04.203Z,5.63
2018-06-29T02:49:04.204Z,5.63
2018-06-29T02:50:04.206Z,5.63
2018-06-29T02:51:04.211Z,5.63
2018-06-29T02:52:04.214Z,5.63
2018-06-29T02:53:04.216Z,5.63
2018-06-29T02:54:04.220Z,5.63
2018-06-29T02:55:04.222Z,5.63
2018-06-29T02:56:04.225Z,5.63
2018-06-29T02:57:04.228Z,11.25
2018-06-29T02:58:04.232Z,11.25
2018-06-29T02:59:04.236Z,11.25
2018-06-29T03:00:04.238Z,11.25
2018-06-29T03:01:04.243Z,11.25
2018-06-29T03:02:04.245Z,11.25
2018-06-29T03:03:04.247Z,16.88
2018-06-29T03:04:04.249Z,16.88
2018-06-29T03:05:04.255Z,16.88
2018-06-29T03:06:04.250Z,16.88
2018-06-29T03:07:04.257Z,16.88
2018-06-29T03:08:04.262Z,22.50
2018-06-29T03:09:04.263Z,22.50
2018-06-29T03:10:04.264Z,22.50
2018-06-29T03:11:04.272Z,22.50
2018-06-29T03:12:04.273Z,22.50
2018-06-29T03:13:04.276Z,28.13
2018-06-29T03:14:04.278Z,28.13
2018-06-29T03:15:04.281Z,28.13
2018-06-29T03:16:04.285Z,33.75
2018-06-29T03:17:04.289Z,33.75
2018-06-29T03:18:04.290Z,33.75
2018-06-29T03:19:04.293Z,39.38
2018-06-29T03:20:04.299Z,39.38
2018-06-29T03:21:04.298Z,39.38
2018-06-29T03:22:04.304Z,45.00
2018-06-29T03:23:04.305Z,45.00
2018-06-29T03:24:04.308Z,50.63
2018-06-29T03:25:04.336Z,50.63
2018-06-29T03:26:04.316Z,56.25
2018-06-29T03:27:04.314Z,56.25
2018-06-29T03:28:04.320Z,61.88
2018-06-29T03:29:04.316Z,61.88
2018-06-29T03:30:04.324Z,61.88
2018-06-29T03:31:04.327Z,67.50
2018-06-29T03:32:04.332Z,67.50
2018-06-29T03:33:04.368Z,73.13
2018-06-29T03:34:04.332Z,73.13
2018-06-29T03:35:04.342Z,73.13
2018-06-29T03:36:04.344Z,73.13
2018-06-29T03:37:04.348Z,78.75
2018-06-29T03:38:04.350Z,78.75
2018-06-29T03:39:04.350Z,84.38
2018-06-29T03:40:04.354Z,84.38
2018-06-29T03:41:04.358Z,90.00
2018-06-29T03:42:04.363Z,95.63
2018-06-29T03:43:04.366Z,95.63
2018-06-29T03:44:04.372Z,95.63
2018-06-29T03:45:04.371Z,101.25
2018-06-29T03:46:04.374Z,101.25
2018-06-29T03:47:04.376Z,106.88
2018-06-29T03:48:04.382Z,106.88
2018-06-29T03:49:04.382Z,112.50
2018-06-29T03:50:04.386Z,112.50
2018-06-29T03:51:04.393Z,112.50
2018-06-29T03:52:04.392Z,118.13
2018-06-29T03:53:04.395Z,118.13
2018-06-29T03:54:04.399Z,118.13
2018-06-29T03:55:04.404Z,123.75
2018-06-29T03:56:04.406Z,123.75
2018-06-29T03:57:04.408Z,123.75
2018-06-29T03:58:04.411Z,123.75
2018-06-29T03:59:04.416Z,129.38
2018-06-29T04:00:04.418Z,129.38
2018-06-29T04:01:04.419Z,135.00
2018-06-29T04:02:04.418Z,135.00
2018-06-29T04:03:04.427Z,135.00
2018-06-29T04:04:04.431Z,140.63
2018-06-29T04:05:04.432Z,140.63
2018-06-29T04:06:04.436Z,146.25
2018-06-29T04:07:04.439Z,151.88
2018-06-29T04:08:04.444Z,157.50
2018-06-29T04:09:04.445Z,163.13
2018-06-29T04:10:04.443Z,168.75
2018-06-29T04:11:04.455Z,174.38
2018-06-29T04:12:04.456Z,180.00
2018-06-29T04:13:04.454Z,185.63
2018-06-29T04:14:04.462Z,185.63
2018-06-29T04:15:04.465Z,191.25
2018-06-29T04:16:04.466Z,196.88
2018-06-29T04:17:04.471Z,202.50
2018-06-29T04:18:04.474Z,208.13
2018-06-29T04:19:04.478Z,213.75
2018-06-29T04:20:04.480Z,219.38
2018-06-29T04:21:04.477Z,225.00
2018-06-29T04:22:04.488Z,225.00
2018-06-29T04:23:04.504Z,230.63
2018-06-29T04:24:04.493Z,236.25
2018-06-29T04:25:04.492Z,241.88
2018-06-29T04:26:04.499Z,241.88
2018-06-29T04:27:04.504Z,241.88
2018-06-29T04:28:04.507Z,247.50
2018-06-29T04:29:04.509Z,241.88
2018-06-29T04:30:04.513Z,247.50
2018-06-29T04:31:04.517Z,247.50
2018-06-29T04:32:04.532Z,253.13
2018-06-29T04:33:04.523Z,264.38
2018-06-29T04:34:04.527Z,270.00
2018-06-29T04:35:04.533Z,281.25
2018-06-29T04:36:04.536Z,286.88
2018-06-29T04:37:04.537Z,298.13
2018-06-29T04:38:04.536Z,309.38
2018-06-29T04:39:04.548Z,320.63
2018-06-29T04:40:04.543Z,326.25
2018-06-29T04:41:04.552Z,331.88
2018-06-29T04:42:04.558Z,343.13
2018-06-29T04:43:04.560Z,348.75
2018-06-29T04:44:04.565Z,354.38
2018-06-29T04:45:04.561Z,354.38
2018-06-29T04:46:04.569Z,348.75
2018-06-29T04:47:04.575Z,348.75
2018-06-29T04:48:04.584Z,343.13
2018-06-29T04:49:04.583Z,348.75
2018-06-29T04:50:04.591Z,354.38
2018-06-29T04:51:04.586Z,354.38
2018-06-29T04:52:04.601Z,360.00
2018-06-29T04:53:04.599Z,354.38
2018-06-29T04:54:04.604Z,354.38
2018-06-29T04:55:04.608Z,348.75
2018-06-29T04:56:04.613Z,348.75
2018-06-29T04:57:04.616Z,348.75
2018-06-29T04:58:04.619Z,360.00
2018-06-29T04:59:04.625Z,371.25
2018-06-29T05:00:04.632Z,388.13
2018-06-29T05:01:04.694Z,399.38
2018-06-29T05:02:04.642Z,405.00
2018-06-29T05:03:04.640Z,410.63
2018-06-29T05:04:04.646Z,416.25
2018-06-29T05:05:04.648Z,416.25
2018-06-29T05:06:04.649Z,427.50
2018-06-29T05:07:04.663Z,438.75
2018-06-29T05:08:04.663Z,438.75
2018-06-29T05:09:04.678Z,433.13
2018-06-29T05:10:04.671Z,421.88
2018-06-29T05:11:04.676Z,399.38
2018-06-29T05:12:04.680Z,393.75
2018-06-29T05:13:04.685Z,382.50
2018-06-29T05:14:04.688Z,371.25
2018-06-29T05:15:04.692Z,365.63
2018-06-29T05:16:04.693Z,360.00
2018-06-29T05:17:04.702Z,348.75
2018-06-29T05:18:04.702Z,343.13
2018-06-29T05:19:04.714Z,337.50
2018-06-29T05:20:04.725Z,337.50
2018-06-29T05:21:04.720Z,337.50
2018-06-29T05:22:04.727Z,343.13
2018-06-29T05:23:04.728Z,343.13
2018-06-29T05:24:04.735Z,343.13
2018-06-29T05:25:04.740Z,343.13
2018-06-29T05:26:04.741Z,337.50
2018-06-29T05:27:04.741Z,337.50
2018-06-29T05:28:04.753Z,337.50
2018-06-29T05:29:04.757Z,337.50
2018-06-29T05:30:04.763Z,337.50
2018-06-29T05:31:04.764Z,337.50
2018-06-29T05:32:04.767Z,337.50
2018-06-29T05:33:04.777Z,331.88
2018-06-29T05:34:04.780Z,331.88
2018-06-29T05:35:04.782Z,331.88
2018-06-29T05:36:04.798Z,331.88
2018-06-29T05:37:04.793Z,331.88
2018-06-29T05:38:04.798Z,331.88
2018-06-29T05:39:04.801Z,331.88
2018-06-29T05:40:04.809Z,331.88
2018-06-29T05:41:04.810Z,331.88
2018-06-29T05:42:04.815Z,331.88
2018-06-29T05:43:04.820Z,331.88
2018-06-29T05:44:04.827Z,331.88
2018-06-29T05:45:04.822Z,331.88
2018-06-29T05:46:04.845Z,337.50
2018-06-29T05:47:04.913Z,337.50
2018-06-29T05:48:04.842Z,337.50
2018-06-29T05:49:04.850Z,337.50
2018-06-29T05:50:04.852Z,337.50
2018-06-29T05:51:04.860Z,337.50
2018-06-29T05:52:04.858Z,337.50
2018-06-29T05:53:04.876Z,337.50
2018-06-29T05:54:04.871Z,337.50
2018-06-29T05:55:04.874Z,337.50
2018-06-29T05:56:04.882Z,337.50
2018-06-29T05:57:04.883Z,343.13
2018-06-29T05:58:04.885Z,343.13
2018-06-29T05:59:04.909Z,343.13
2018-06-29T06:00:04.896Z,348.75
2018-06-29T06:01:04.901Z,348.75
2018-06-29T06:02:04.937Z,348.75
2018-06-29T06:03:04.911Z,348.75
2018-06-29T06:04:04.921Z,348.75
2018-06-29T06:05:04.912Z,348.75
2018-06-29T06:06:04.926Z,348.75
2018-06-29T06:07:04.928Z,348.75
2018-06-29T06:08:04.932Z,354.38
2018-06-29T06:09:04.937Z,360.00
2018-06-29T06:10:04.979Z,360.00
2018-06-29T06:11:04.947Z,360.00
2018-06-29T06:12:04.950Z,360.00
2018-06-29T06:13:04.955Z,360.00
2018-06-29T06:14:04.963Z,365.63
2018-06-29T06:15:04.968Z,365.63
2018-06-29T06:16:04.977Z,365.63
2018-06-29T06:17:04.969Z,365.63
2018-06-29T06:18:04.979Z,365.63
2018-06-29T06:19:04.984Z,365.63
2018-06-29T06:20:04.989Z,365.63
2018-06-29T06:21:04.997Z,360.00
2018-06-29T06:22:05.052Z,360.00
2018-06-29T06:23:05.004Z,360.00
2018-06-29T06:24:05.009Z,365.63
2018-06-29T06:25:05.018Z,365.63
2018-06-29T06:26:05.017Z,365.63
2018-06-29T06:27:05.020Z,365.63
2018-06-29T06:28:05.028Z,365.63
2018-06-29T06:29:05.030Z,365.63
2018-06-29T06:30:05.050Z,365.63
2018-06-29T06:31:05.041Z,365.63
2018-06-29T06:32:05.050Z,365.63
2018-06-29T06:33:05.061Z,365.63
2018-06-29T06:34:05.055Z,365.63
2018-06-29T06:35:05.062Z,365.63
2018-06-29T06:36:05.058Z,365.63
2018-06-29T06:37:05.075Z,365.63
2018-06-29T06:38:05.075Z,365.63
2018-06-29T06:39:05.081Z,365.63
2018-06-29T06:40:05.087Z,365.63
2018-06-29T06:41:05.089Z,365.63
2018-06-29T06:42:05.094Z,365.63
2018-06-29T06:43:05.105Z,365.63
2018-06-29T06:44:05.100Z,365.63
2018-06-29T06:45:05.106Z,365.63
2018-06-29T06:46:05.114Z,365.63
2018-06-29T06:47:05.231Z,365.63
2018-06-29T06:48:05.129Z,365.63
2018-06-29T06:49:05.131Z,365.63
2018-06-29T06:50:05.138Z,365.63
2018-06-29T06:51:05.135Z,365.63
2018-06-29T06:52:05.145Z,371.25
2018-06-29T06:53:05.149Z,371.25
2018-06-29T06:54:05.150Z,371.25
2018-06-29T06:55:05.154Z,365.63
2018-06-29T06:56:05.168Z,371.25
2018-06-29T06:57:05.166Z,371.25
2018-06-29T06:58:05.172Z,371.25
2018-06-29T06:59:05.182Z,371.25
2018-06-29T07:00:05.186Z,371.25
2018-06-29T07:01:05.191Z,371.25
2018-06-29T07:02:05.198Z,371.25
2018-06-29T07:03:05.213Z,371.25
2018-06-29T07:04:05.216Z,371.25
2018-06-29T07:05:05.216Z,371.25
2018-06-29T07:06:05.216Z,371.25
2018-06-29T07:07:05.222Z,371.25
2018-06-29T07:08:05.227Z,371.25
2018-06-29T07:09:05.230Z,371.25
2018-06-29T07:10:05.237Z,371.25
2018-06-29T07:11:05.241Z,371.25
2018-06-29T07:12:05.249Z,371.25
2018-06-29T07:13:05.250Z,371.25
2018-06-29T07:14:05.259Z,371.25
2018-06-29T07:15:05.267Z,371.25
2018-06-29T07:16:05.269Z,371.25
2018-06-29T07:17:05.274Z,371.25
2018-06-29T07:18:05.295Z,371.25
2018-06-29T07:19:05.299Z,371.25
2018-06-29T07:20:05.307Z,371.25
2018-06-29T07:21:05.296Z,371.25
2018-06-29T07:22:05.292Z,371.25
2018-06-29T07:23:05.306Z,371.25
2018-06-29T07:24:05.312Z,371.25
2018-06-29T07:25:05.321Z,371.25
2018-06-29T07:26:05.322Z,376.88
2018-06-29T07:27:05.321Z,376.88
2018-06-29T07:28:05.341Z,376.88
2018-06-29T07:29:05.337Z,376.88
2018-06-29T07:30:05.357Z,376.88
2018-06-29T07:31:05.348Z,376.88
2018-06-29T07:32:05.354Z,382.50
2018-06-29T07:33:05.359Z,382.50
2018-06-29T07:34:05.365Z,376.88
2018-06-29T07:35:05.370Z,376.88
2018-06-29T07:36:05.374Z,376.88
2018-06-29T07:37:05.388Z,376.88
2018-06-29T07:38:05.388Z,376.88
2018-06-29T07:39:05.392Z,382.50
2018-06-29T07:40:05.397Z,382.50
2018-06-29T07:41:05.400Z,382.50
2018-06-29T07:42:05.410Z,382.50
2018-06-29T07:43:05.414Z,382.50
2018-06-29T07:44:05.419Z,382.50
2018-06-29T07:45:05.428Z,382.50
2018-06-29T07:46:05.441Z,382.50
2018-06-29T07:47:05.432Z,382.50
2018-06-29T07:48:05.443Z,382.50
2018-06-29T07:49:05.456Z,382.50
2018-06-29T07:50:05.453Z,388.13
2018-06-29T07:51:05.461Z,388.13
2018-06-29T07:52:05.464Z,388.13
2018-06-29T07:53:05.469Z,388.13
2018-06-29T07:54:05.475Z,388.13
2018-06-29T07:55:05.489Z,388.13
2018-06-29T07:56:05.487Z,388.13
2018-06-29T07:57:05.493Z,388.13
2018-06-29T07:58:05.529Z,388.13
2018-06-29T07:59:05.504Z,388.13
2018-06-29T08:00:05.515Z,393.75
2018-06-29T08:01:05.521Z,393.75
2018-06-29T08:02:05.522Z,388.13
2018-06-29T08:03:05.534Z,388.13
2018-06-29T08:04:05.534Z,382.50
2018-06-29T08:05:05.532Z,388.13
2018-06-29T08:06:05.544Z,382.50
2018-06-29T08:07:05.549Z,388.13
2018-06-29T08:08:05.556Z,388.13
2018-06-29T08:09:05.564Z,388.13
2018-06-29T08:10:05.571Z,393.75
2018-06-29T08:11:05.574Z,388.13
2018-06-29T08:12:05.579Z,388.13
2018-06-29T08:13:05.591Z,388.13
